sensor_id;sensor_type;location;lat;lon;timestamp;pressure;altitude;pressure_sealevel;temperature;humidity
20889;BME280;10604;51.976;7.594;2023-02-03T00:00:20;101543.56;;;9.46;96.69
20889;BME280;10604;51.976;7.594;2023-02-03T00:02:45;101543.38;;;9.61;96.16
20889;BME280;10604;51.976;7.594;2023-02-03T00:05:10;101546.97;;;9.57;96.33
20889;BME280;10604;51.976;7.594;2023-02-03T00:07:37;101545.91;;;9.69;96.10
20889;BME280;10604;51.976;7.594;2023-02-03T00:10:04;101539.75;;;9.71;95.92
20889;BME280;10604;51.976;7.594;2023-02-03T00:12:30;101524.06;;;9.62;95.65
20889;BME280;10604;51.976;7.594;2023-02-03T00:14:55;101535.47;;;9.61;95.65
20889;BME280;10604;51.976;7.594;2023-02-03T00:17:20;101542.56;;;9.56;96.60
20889;BME280;10604;51.976;7.594;2023-02-03T00:19:46;101541.69;;;9.57;95.78
20889;BME280;10604;51.976;7.594;2023-02-03T00:22:11;101539.84;;;9.62;95.63
20889;BME280;10604;51.976;7.594;2023-02-03T00:24:37;101539.78;;;9.68;94.89
20889;BME280;10604;51.976;7.594;2023-02-03T00:27:03;101532.81;;;9.64;95.32
20889;BME280;10604;51.976;7.594;2023-02-03T00:29:28;101535.38;;;9.67;95.39
20889;BME280;10604;51.976;7.594;2023-02-03T00:31:54;101543.34;;;9.64;95.24
20889;BME280;10604;51.976;7.594;2023-02-03T00:34:19;101532.91;;;9.58;95.37
20889;BME280;10604;51.976;7.594;2023-02-03T00:36:45;101552.13;;;9.63;95.10
20889;BME280;10604;51.976;7.594;2023-02-03T00:39:13;101553.81;;;9.70;94.92
20889;BME280;10604;51.976;7.594;2023-02-03T00:41:38;101539.84;;;9.65;94.83
20889;BME280;10604;51.976;7.594;2023-02-03T00:44:04;101556.34;;;9.78;94.51
20889;BME280;10604;51.976;7.594;2023-02-03T00:46:29;101555.50;;;9.74;94.43
20889;BME280;10604;51.976;7.594;2023-02-03T00:48:54;101545.03;;;9.68;94.46
20889;BME280;10604;51.976;7.594;2023-02-03T00:51:20;101550.13;;;9.80;94.20
20889;BME280;10604;51.976;7.594;2023-02-03T00:53:46;101549.31;;;9.77;94.42
20889;BME280;10604;51.976;7.594;2023-02-03T00:56:12;101560.72;;;9.77;94.07
20889;BME280;10604;51.976;7.594;2023-02-03T00:58:40;101574.69;;;9.82;93.41
20889;BME280;10604;51.976;7.594;2023-02-03T01:01:07;101576.47;;;9.80;94.06
20889;BME280;10604;51.976;7.594;2023-02-03T01:03:32;101582.53;;;9.89;94.07
20889;BME280;10604;51.976;7.594;2023-02-03T01:06:30;101583.50;;;9.81;93.61
20889;BME280;10604;51.976;7.594;2023-02-03T01:08:56;101588.69;;;9.88;93.70
20889;BME280;10604;51.976;7.594;2023-02-03T01:11:24;101588.69;;;9.88;93.60
20889;BME280;10604;51.976;7.594;2023-02-03T01:13:50;101576.47;;;9.80;93.22
20889;BME280;10604;51.976;7.594;2023-02-03T01:16:18;101574.69;;;9.82;93.06
20889;BME280;10604;51.976;7.594;2023-02-03T01:18:44;101580.03;;;9.79;93.34
20889;BME280;10604;51.976;7.594;2023-02-03T01:21:16;101580.16;;;9.67;93.11
20889;BME280;10604;51.976;7.594;2023-02-03T01:23:42;101590.56;;;9.79;93.12
20889;BME280;10604;51.976;7.594;2023-02-03T01:26:11;101585.22;;;9.86;93.47
20889;BME280;10604;51.976;7.594;2023-02-03T01:28:38;101585.25;;;9.82;93.17
20889;BME280;10604;51.976;7.594;2023-02-03T01:31:12;101595.84;;;9.79;93.28
20889;BME280;10604;51.976;7.594;2023-02-03T01:33:38;101579.25;;;9.73;93.78
20889;BME280;10604;51.976;7.594;2023-02-03T01:36:10;101583.63;;;9.72;93.99
20889;BME280;10604;51.976;7.594;2023-02-03T01:38:36;101578.31;;;9.75;94.10
20889;BME280;10604;51.976;7.594;2023-02-03T01:41:03;101567.66;;;9.85;93.30
20889;BME280;10604;51.976;7.594;2023-02-03T01:43:34;101565.16;;;9.74;93.38
20889;BME280;10604;51.976;7.594;2023-02-03T01:46:47;101569.50;;;9.79;93.64
20889;BME280;10604;51.976;7.594;2023-02-03T01:48:47;101560.66;;;9.80;93.05
20889;BME280;10604;51.976;7.594;2023-02-03T01:51:13;101566.88;;;9.78;93.23
20889;BME280;10604;51.976;7.594;2023-02-03T01:53:39;101569.34;;;9.89;92.95
20889;BME280;10604;51.976;7.594;2023-02-03T01:56:06;101565.88;;;9.87;92.62
20889;BME280;10604;51.976;7.594;2023-02-03T01:58:36;101567.69;;;9.81;92.87
20889;BME280;10604;51.976;7.594;2023-02-03T02:01:02;101562.28;;;9.94;92.77
20889;BME280;10604;51.976;7.594;2023-02-03T02:03:39;101547.47;;;9.82;92.37
20889;BME280;10604;51.976;7.594;2023-02-03T02:06:09;101541.41;;;9.78;92.14
20889;BME280;10604;51.976;7.594;2023-02-03T02:08:36;101525.03;;;9.54;93.51
20889;BME280;10604;51.976;7.594;2023-02-03T02:11:03;101525.63;;;9.75;93.21
20889;BME280;10604;51.976;7.594;2023-02-03T02:13:31;101520.25;;;9.85;92.15
20889;BME280;10604;51.976;7.594;2023-02-03T02:16:08;101504.38;;;9.88;92.09
20889;BME280;10604;51.976;7.594;2023-02-03T02:25:08;101498.41;;;9.76;92.65
20889;BME280;10604;51.976;7.594;2023-02-03T02:33:28;101489.59;;;9.77;92.24
20889;BME280;10604;51.976;7.594;2023-02-03T02:38:48;101472.16;;;9.70;92.18
20889;BME280;10604;51.976;7.594;2023-02-03T02:42:10;101467.75;;;9.72;91.87
20889;BME280;10604;51.976;7.594;2023-02-03T02:46:38;101490.28;;;9.92;91.26
20889;BME280;10604;51.976;7.594;2023-02-03T02:51:44;101513.19;;;9.87;91.08
20889;BME280;10604;51.976;7.594;2023-02-03T02:54:15;101506.06;;;9.92;91.00
20889;BME280;10604;51.976;7.594;2023-02-03T02:56:44;101520.25;;;9.81;91.07
20889;BME280;10604;51.976;7.594;2023-02-03T02:59:13;101530.69;;;9.91;90.80
20889;BME280;10604;51.976;7.594;2023-02-03T03:01:38;101544.72;;;9.93;90.75
20889;BME280;10604;51.976;7.594;2023-02-03T03:04:06;101539.47;;;9.90;90.98
20889;BME280;10604;51.976;7.594;2023-02-03T03:06:50;101537.78;;;9.86;90.99
20889;BME280;10604;51.976;7.594;2023-02-03T03:09:21;101507.88;;;9.88;91.55
20889;BME280;10604;51.976;7.594;2023-02-03T03:11:50;101504.44;;;9.85;91.56
20889;BME280;10604;51.976;7.594;2023-02-03T03:14:19;101495.72;;;9.79;91.01
20889;BME280;10604;51.976;7.594;2023-02-03T03:16:52;101497.38;;;9.87;91.17
20889;BME280;10604;51.976;7.594;2023-02-03T03:19:22;101497.50;;;9.77;91.47
20889;BME280;10604;51.976;7.594;2023-02-03T03:22:01;101503.66;;;9.76;91.51
20889;BME280;10604;51.976;7.594;2023-02-03T03:24:33;101513.22;;;9.85;91.59
20889;BME280;10604;51.976;7.594;2023-02-03T03:27:17;101497.38;;;9.87;90.99
20889;BME280;10604;51.976;7.594;2023-02-03T03:29:57;101501.81;;;9.83;90.90
20889;BME280;10604;51.976;7.594;2023-02-03T03:32:25;101502.78;;;9.77;91.04
20889;BME280;10604;51.976;7.594;2023-02-03T03:34:52;101499.16;;;9.85;91.06
20889;BME280;10604;51.976;7.594;2023-02-03T03:37:43;101499.19;;;9.81;90.49
20889;BME280;10604;51.976;7.594;2023-02-03T03:40:15;101486.97;;;9.77;90.69
20889;BME280;10604;51.976;7.594;2023-02-03T03:42:50;101505.28;;;9.87;90.40
20889;BME280;10604;51.976;7.594;2023-02-03T03:45:27;101503.66;;;9.78;90.55
20889;BME280;10604;51.976;7.594;2023-02-03T03:48:03;101492.16;;;9.83;90.22
20889;BME280;10604;51.976;7.594;2023-02-03T03:50:41;101489.50;;;9.83;90.61
20889;BME280;10604;51.976;7.594;2023-02-03T03:53:09;101493.03;;;9.82;90.05
20889;BME280;10604;51.976;7.594;2023-02-03T03:55:36;101471.03;;;9.87;90.54
20889;BME280;10604;51.976;7.594;2023-02-03T03:58:07;101482.44;;;9.87;90.04
20889;BME280;10604;51.976;7.594;2023-02-03T04:00:36;101474.56;;;9.86;90.11
20889;BME280;10604;51.976;7.594;2023-02-03T04:03:17;101470.19;;;9.85;89.89
20889;BME280;10604;51.976;7.594;2023-02-03T04:05:45;101489.59;;;9.79;89.84
20889;BME280;10604;51.976;7.594;2023-02-03T04:08:10;101504.56;;;9.75;90.11
20889;BME280;10604;51.976;7.594;2023-02-03T04:10:38;101494.00;;;9.75;90.05
20889;BME280;10604;51.976;7.594;2023-02-03T04:13:06;101466.66;;;9.84;89.77
20889;BME280;10604;51.976;7.594;2023-02-03T04:15:32;101467.63;;;9.80;89.67
20889;BME280;10604;51.976;7.594;2023-02-03T04:17:58;101474.59;;;9.82;89.38
20889;BME280;10604;51.976;7.594;2023-02-03T04:20:26;101474.47;;;9.92;89.04
20889;BME280;10604;51.976;7.594;2023-02-03T04:22:52;101457.94;;;9.80;89.57
20889;BME280;10604;51.976;7.594;2023-02-03T04:25:17;101474.66;;;9.79;89.25
20889;BME280;10604;51.976;7.594;2023-02-03T04:27:42;101472.06;;;9.75;88.90
20889;BME280;10604;51.976;7.594;2023-02-03T04:30:09;101467.56;;;9.81;88.71
20889;BME280;10604;51.976;7.594;2023-02-03T04:32:34;101469.13;;;9.95;88.90
20889;BME280;10604;51.976;7.594;2023-02-03T04:35:01;101478.00;;;9.88;89.05
20889;BME280;10604;51.976;7.594;2023-02-03T04:37:27;101474.50;;;9.89;89.21
20889;BME280;10604;51.976;7.594;2023-02-03T04:39:53;101475.44;;;9.85;89.03
20889;BME280;10604;51.976;7.594;2023-02-03T04:42:19;101479.72;;;9.92;88.92
20889;BME280;10604;51.976;7.594;2023-02-03T04:44:45;101469.22;;;9.89;88.56
20889;BME280;10604;51.976;7.594;2023-02-03T04:47:10;101470.97;;;9.88;88.11
20889;BME280;10604;51.976;7.594;2023-02-03T04:49:36;101478.84;;;9.91;88.07
20889;BME280;10604;51.976;7.594;2023-02-03T04:52:01;101475.25;;;9.97;88.40
20889;BME280;10604;51.976;7.594;2023-02-03T04:54:26;101467.31;;;10.00;88.42
20889;BME280;10604;51.976;7.594;2023-02-03T04:56:52;101462.19;;;9.91;88.45
20889;BME280;10604;51.976;7.594;2023-02-03T04:59:17;101448.03;;;9.95;88.38
20889;BME280;10604;51.976;7.594;2023-02-03T05:01:43;101439.34;;;9.90;88.26
20889;BME280;10604;51.976;7.594;2023-02-03T05:04:08;101437.50;;;9.95;88.19
20889;BME280;10604;51.976;7.594;2023-02-03T05:06:34;101440.13;;;9.96;88.61
20889;BME280;10604;51.976;7.594;2023-02-03T05:08:59;101437.72;;;9.82;88.23
20889;BME280;10604;51.976;7.594;2023-02-03T05:11:25;101446.47;;;9.85;88.60
20889;BME280;10604;51.976;7.594;2023-02-03T05:13:50;101432.53;;;9.76;88.90
20889;BME280;10604;51.976;7.594;2023-02-03T05:16:16;101435.94;;;9.85;88.37
20889;BME280;10604;51.976;7.594;2023-02-03T05:18:41;101437.59;;;9.89;88.19
20889;BME280;10604;51.976;7.594;2023-02-03T05:21:07;101429.78;;;9.86;88.41
20889;BME280;10604;51.976;7.594;2023-02-03T05:23:32;101428.94;;;9.80;88.13
20889;BME280;10604;51.976;7.594;2023-02-03T05:25:58;101432.50;;;9.79;88.48
20889;BME280;10604;51.976;7.594;2023-02-03T05:28:23;101434.28;;;9.77;89.01
20889;BME280;10604;51.976;7.594;2023-02-03T05:30:49;101432.44;;;9.82;88.47
20889;BME280;10604;51.976;7.594;2023-02-03T05:33:14;101434.19;;;9.83;88.51
20889;BME280;10604;51.976;7.594;2023-02-03T05:35:39;101435.94;;;9.85;88.36
20889;BME280;10604;51.976;7.594;2023-02-03T05:38:05;101421.88;;;9.86;87.82
20889;BME280;10604;51.976;7.594;2023-02-03T05:40:30;101429.13;;;9.71;88.72
20889;BME280;10604;51.976;7.594;2023-02-03T05:43:14;101424.56;;;9.81;88.35
20889;BME280;10604;51.976;7.594;2023-02-03T05:45:40;101425.63;;;9.69;89.00
20889;BME280;10604;51.976;7.594;2023-02-03T05:48:05;101424.88;;;9.61;89.44
20889;BME280;10604;51.976;7.594;2023-02-03T05:50:32;101423.00;;;9.69;89.69
20889;BME280;10604;51.976;7.594;2023-02-03T05:52:58;101426.38;;;9.77;89.05
20889;BME280;10604;51.976;7.594;2023-02-03T05:55:25;101432.44;;;9.82;89.24
20889;BME280;10604;51.976;7.594;2023-02-03T05:57:50;101446.47;;;9.85;89.49
20889;BME280;10604;51.976;7.594;2023-02-03T06:00:16;101437.66;;;9.86;89.01
20889;BME280;10604;51.976;7.594;2023-02-03T06:02:41;101430.59;;;9.88;88.97
20889;BME280;10604;51.976;7.594;2023-02-03T06:05:07;101447.34;;;9.83;89.00
20889;BME280;10604;51.976;7.594;2023-02-03T06:07:32;101437.72;;;9.82;89.29
20889;BME280;10604;51.976;7.594;2023-02-03T06:09:57;101436.84;;;9.80;88.92
20889;BME280;10604;51.976;7.594;2023-02-03T06:12:23;101434.19;;;9.83;89.26
20889;BME280;10604;51.976;7.594;2023-02-03T06:14:48;101436.06;;;9.75;89.51
20889;BME280;10604;51.976;7.594;2023-02-03T06:17:13;101435.97;;;9.81;89.13
20889;BME280;10604;51.976;7.594;2023-02-03T06:19:39;101429.88;;;9.78;89.03
20889;BME280;10604;51.976;7.594;2023-02-03T06:22:04;101428.78;;;9.93;88.59
20889;BME280;10604;51.976;7.594;2023-02-03T06:24:29;101433.16;;;9.92;88.36
20889;BME280;10604;51.976;7.594;2023-02-03T06:26:55;101441.94;;;9.94;88.30
20889;BME280;10604;51.976;7.594;2023-02-03T06:29:20;101432.31;;;9.92;88.11
20889;BME280;10604;51.976;7.594;2023-02-03T06:31:45;101430.56;;;9.91;88.28
20889;BME280;10604;51.976;7.594;2023-02-03T06:34:11;101431.41;;;9.93;88.29
20889;BME280;10604;51.976;7.594;2023-02-03T06:36:36;101435.94;;;9.85;88.29
20889;BME280;10604;51.976;7.594;2023-02-03T06:39:01;101427.03;;;9.92;88.50
20889;BME280;10604;51.976;7.594;2023-02-03T06:41:27;101442.84;;;9.92;87.98
20889;BME280;10604;51.976;7.594;2023-02-03T06:43:55;101431.34;;;9.96;88.52
20889;BME280;10604;51.976;7.594;2023-02-03T06:46:20;101441.94;;;9.94;87.83
20889;BME280;10604;51.976;7.594;2023-02-03T06:48:46;101447.13;;;9.99;87.76
20889;BME280;10604;51.976;7.594;2023-02-03T06:51:11;101442.84;;;9.92;88.11
20889;BME280;10604;51.976;7.594;2023-02-03T06:53:36;101448.91;;;9.95;87.34
20889;BME280;10604;51.976;7.594;2023-02-03T06:56:02;101450.53;;;10.05;87.66
20889;BME280;10604;51.976;7.594;2023-02-03T06:58:28;101448.78;;;10.03;87.38
20889;BME280;10604;51.976;7.594;2023-02-03T07:00:56;101436.59;;;9.96;87.66
20889;BME280;10604;51.976;7.594;2023-02-03T07:03:22;101432.84;;;10.12;87.22
20889;BME280;10604;51.976;7.594;2023-02-03T07:05:47;101433.84;;;10.05;87.30
20889;BME280;10604;51.976;7.594;2023-02-03T07:08:12;101435.50;;;10.09;87.29
20889;BME280;10604;51.976;7.594;2023-02-03T07:10:38;101440.84;;;10.06;86.59
20889;BME280;10604;51.976;7.594;2023-02-03T07:13:05;101447.97;;;10.01;87.54
20889;BME280;10604;51.976;7.594;2023-02-03T07:15:30;101444.16;;;10.20;87.04
20889;BME280;10604;51.976;7.594;2023-02-03T07:17:56;101439.00;;;10.11;87.03
20889;BME280;10604;51.976;7.594;2023-02-03T07:20:22;101432.75;;;10.18;86.95
20889;BME280;10604;51.976;7.594;2023-02-03T07:22:55;101436.91;;;10.31;86.37
20889;BME280;10604;51.976;7.594;2023-02-03T07:25:22;101436.16;;;10.25;86.19
20889;BME280;10604;51.976;7.594;2023-02-03T07:27:48;101437.91;;;10.26;86.03
20889;BME280;10604;51.976;7.594;2023-02-03T07:30:14;101439.53;;;10.33;86.36
20889;BME280;10604;51.976;7.594;2023-02-03T07:32:39;101437.81;;;10.30;86.38
20889;BME280;10604;51.976;7.594;2023-02-03T07:35:05;101431.59;;;10.34;86.86
20889;BME280;10604;51.976;7.594;2023-02-03T07:37:30;101431.66;;;10.31;86.76
20889;BME280;10604;51.976;7.594;2023-02-03T07:39:55;101429.09;;;10.28;86.93
20889;BME280;10604;51.976;7.594;2023-02-03T07:42:21;101429.84;;;10.33;86.19
20889;BME280;10604;51.976;7.594;2023-02-03T07:44:46;101431.50;;;10.40;86.28
20889;BME280;10604;51.976;7.594;2023-02-03T07:47:12;101453.38;;;10.45;86.34
20889;BME280;10604;51.976;7.594;2023-02-03T07:49:37;101445.69;;;10.33;86.58
20889;BME280;10604;51.976;7.594;2023-02-03T07:52:03;101429.84;;;10.33;86.53
20889;BME280;10604;51.976;7.594;2023-02-03T07:54:28;101443.78;;;10.41;86.08
20889;BME280;10604;51.976;7.594;2023-02-03T07:56:54;101433.28;;;10.38;86.63
20889;BME280;10604;51.976;7.594;2023-02-03T07:59:20;101433.38;;;10.32;87.27
20889;BME280;10604;51.976;7.594;2023-02-03T08:01:45;101431.59;;;10.34;87.42
20889;BME280;10604;51.976;7.594;2023-02-03T08:04:11;101434.09;;;10.43;87.83
20889;BME280;10604;51.976;7.594;2023-02-03T08:06:41;101426.44;;;10.28;87.96
20889;BME280;10604;51.976;7.594;2023-02-03T08:09:06;101440.50;;;10.29;88.14
20889;BME280;10604;51.976;7.594;2023-02-03T08:11:32;101424.81;;;10.21;88.36
20889;BME280;10604;51.976;7.594;2023-02-03T08:13:57;101435.34;;;10.21;88.21
20889;BME280;10604;51.976;7.594;2023-02-03T08:16:22;101438.66;;;10.32;87.95
20889;BME280;10604;51.976;7.594;2023-02-03T08:18:48;101450.16;;;10.30;87.81
20889;BME280;10604;51.976;7.594;2023-02-03T08:21:13;101427.34;;;10.26;87.38
20889;BME280;10604;51.976;7.594;2023-02-03T08:23:39;101438.50;;;10.41;87.20
20889;BME280;10604;51.976;7.594;2023-02-03T08:26:04;101443.81;;;10.38;87.34
20889;BME280;10604;51.976;7.594;2023-02-03T08:28:30;101440.28;;;10.39;86.78
20889;BME280;10604;51.976;7.594;2023-02-03T08:30:55;101438.63;;;10.35;87.47
20889;BME280;10604;51.976;7.594;2023-02-03T08:33:22;101439.50;;;10.36;86.72
20889;BME280;10604;51.976;7.594;2023-02-03T08:35:48;101428.06;;;10.35;87.34
20889;BME280;10604;51.976;7.594;2023-02-03T08:38:14;101441.88;;;10.49;87.04
20889;BME280;10604;51.976;7.594;2023-02-03T08:40:40;101438.53;;;10.38;86.83
20889;BME280;10604;51.976;7.594;2023-02-03T08:43:06;101443.66;;;10.47;86.56
20889;BME280;10604;51.976;7.594;2023-02-03T08:45:31;101457.47;;;10.62;86.70
20889;BME280;10604;51.976;7.594;2023-02-03T08:47:56;101440.09;;;10.51;86.39
20889;BME280;10604;51.976;7.594;2023-02-03T08:50:22;101441.75;;;10.55;86.40
20889;BME280;10604;51.976;7.594;2023-02-03T08:52:47;101441.59;;;10.65;86.01
20889;BME280;10604;51.976;7.594;2023-02-03T08:55:13;101440.72;;;10.64;86.19
20889;BME280;10604;51.976;7.594;2023-02-03T08:57:38;101422.28;;;10.63;86.13
20889;BME280;10604;51.976;7.594;2023-02-03T09:00:07;101427.56;;;10.63;86.16
20889;BME280;10604;51.976;7.594;2023-02-03T09:02:33;101424.31;;;10.48;86.52
20889;BME280;10604;51.976;7.594;2023-02-03T09:04:58;101431.38;;;10.46;86.28
20889;BME280;10604;51.976;7.594;2023-02-03T09:07:24;101437.25;;;10.62;86.33
20889;BME280;10604;51.976;7.594;2023-02-03T09:09:50;101437.28;;;10.59;86.93
20889;BME280;10604;51.976;7.594;2023-02-03T09:12:16;101440.03;;;10.54;86.98
20889;BME280;10604;51.976;7.594;2023-02-03T09:14:41;101434.88;;;10.48;87.21
20889;BME280;10604;51.976;7.594;2023-02-03T09:17:07;101433.13;;;10.47;86.84
20889;BME280;10604;51.976;7.594;2023-02-03T09:19:33;101438.53;;;10.38;86.90
20889;BME280;10604;51.976;7.594;2023-02-03T09:21:59;101431.25;;;10.52;87.17
20889;BME280;10604;51.976;7.594;2023-02-03T09:24:24;101436.47;;;10.55;87.17
20889;BME280;10604;51.976;7.594;2023-02-03T09:26:50;101441.88;;;10.49;87.05
20889;BME280;10604;51.976;7.594;2023-02-03T09:29:15;101461.19;;;10.51;87.58
20889;BME280;10604;51.976;7.594;2023-02-03T09:31:41;101462.03;;;10.52;86.90
20889;BME280;10604;51.976;7.594;2023-02-03T09:34:08;101453.09;;;10.59;87.22
20889;BME280;10604;51.976;7.594;2023-02-03T09:36:33;101452.31;;;10.55;86.98
20889;BME280;10604;51.976;7.594;2023-02-03T09:38:59;101461.06;;;10.57;86.91
20889;BME280;10604;51.976;7.594;2023-02-03T09:44:23;101466.41;;;10.53;87.32
20889;BME280;10604;51.976;7.594;2023-02-03T09:46:58;101466.34;;;10.57;87.39
20889;BME280;10604;51.976;7.594;2023-02-03T09:49:28;101458.47;;;10.54;87.26
20889;BME280;10604;51.976;7.594;2023-02-03T09:57:24;101465.34;;;10.65;87.08
20889;BME280;10604;51.976;7.594;2023-02-03T09:59:52;101458.44;;;10.57;87.06
20889;BME280;10604;51.976;7.594;2023-02-03T10:10:23;101446.22;;;10.52;87.48
20889;BME280;10604;51.976;7.594;2023-02-03T10:13:07;101451.53;;;10.50;88.00
20889;BME280;10604;51.976;7.594;2023-02-03T10:18:05;101468.13;;;10.55;87.89
20889;BME280;10604;51.976;7.594;2023-02-03T10:20:37;101485.59;;;10.63;87.61
20889;BME280;10604;51.976;7.594;2023-02-03T10:23:12;101476.97;;;10.53;87.55
20889;BME280;10604;51.976;7.594;2023-02-03T10:25:42;101478.69;;;10.55;88.42
20889;BME280;10604;51.976;7.594;2023-02-03T10:28:14;101485.72;;;10.56;88.07
20889;BME280;10604;51.976;7.594;2023-02-03T10:30:43;101492.63;;;10.64;88.22
20889;BME280;10604;51.976;7.594;2023-02-03T10:33:12;101499.81;;;10.52;88.83
20889;BME280;10604;51.976;7.594;2023-02-03T10:35:52;101503.53;;;10.42;89.83
20889;BME280;10604;51.976;7.594;2023-02-03T10:41:01;101496.47;;;10.44;91.56
20889;BME280;10604;51.976;7.594;2023-02-03T10:43:28;101496.53;;;10.41;91.75
20889;BME280;10604;51.976;7.594;2023-02-03T10:46:15;101500.19;;;10.31;91.85
20889;BME280;10604;51.976;7.594;2023-02-03T10:48:41;101510.75;;;10.31;92.09
20889;BME280;10604;51.976;7.594;2023-02-03T10:51:37;101506.22;;;10.38;91.51
20889;BME280;10604;51.976;7.594;2023-02-03T10:54:04;101505.44;;;10.34;91.39
20889;BME280;10604;51.976;7.594;2023-02-03T10:56:49;101498.16;;;10.48;90.76
20889;BME280;10604;51.976;7.594;2023-02-03T10:59:27;101510.72;;;10.34;90.59
20889;BME280;10604;51.976;7.594;2023-02-03T11:01:53;101503.41;;;10.51;90.71
20889;BME280;10604;51.976;7.594;2023-02-03T11:04:27;101508.81;;;10.42;91.21
20889;BME280;10604;51.976;7.594;2023-02-03T11:07:01;101514.09;;;10.42;91.50
20889;BME280;10604;51.976;7.594;2023-02-03T11:09:32;101519.22;;;10.51;91.22
20889;BME280;10604;51.976;7.594;2023-02-03T11:14:42;101514.75;;;10.53;91.48
20889;BME280;10604;51.976;7.594;2023-02-03T11:19:48;101507.75;;;10.52;91.92
20889;BME280;10604;51.976;7.594;2023-02-03T11:22:33;101522.91;;;10.41;91.96
20889;BME280;10604;51.976;7.594;2023-02-03T11:25:01;101517.50;;;10.47;92.67
20889;BME280;10604;51.976;7.594;2023-02-03T11:27:29;101524.69;;;10.39;93.86
20889;BME280;10604;51.976;7.594;2023-02-03T11:30:16;101521.22;;;10.37;94.60
20889;BME280;10604;51.976;7.594;2023-02-03T11:32:46;101521.13;;;10.43;95.21
20889;BME280;10604;51.976;7.594;2023-02-03T11:35:21;101517.75;;;10.32;95.75
20889;BME280;10604;51.976;7.594;2023-02-03T11:37:55;101510.84;;;10.25;96.41
20889;BME280;10604;51.976;7.594;2023-02-03T11:40:31;101515.22;;;10.26;96.61
20889;BME280;10604;51.976;7.594;2023-02-03T11:43:03;101512.50;;;10.32;96.42
20889;BME280;10604;51.976;7.594;2023-02-03T11:45:39;101518.75;;;10.25;96.73
20889;BME280;10604;51.976;7.594;2023-02-03T11:50:46;101523.28;;;10.17;98.68
20889;BME280;10604;51.976;7.594;2023-02-03T11:59:00;101525.94;;;10.15;98.86
20889;BME280;10604;51.976;7.594;2023-02-03T12:04:35;101526.78;;;10.19;97.71
20889;BME280;10604;51.976;7.594;2023-02-03T12:09:38;101543.44;;;10.23;96.26
20889;BME280;10604;51.976;7.594;2023-02-03T12:12:20;101549.59;;;10.20;95.98
20889;BME280;10604;51.976;7.594;2023-02-03T12:25:35;101562.47;;;10.38;94.65
20889;BME280;10604;51.976;7.594;2023-02-03T12:30:41;101569.34;;;10.50;94.21
20889;BME280;10604;51.976;7.594;2023-02-03T12:33:22;101571.09;;;10.51;93.57
20889;BME280;10604;51.976;7.594;2023-02-03T12:36:10;101568.50;;;10.46;93.63
20889;BME280;10604;51.976;7.594;2023-02-03T12:38:48;101569.25;;;10.54;93.67
20889;BME280;10604;51.976;7.594;2023-02-03T12:41:20;101574.69;;;10.45;93.57
20889;BME280;10604;51.976;7.594;2023-02-03T12:43:48;101564.19;;;10.42;93.96
20889;BME280;10604;51.976;7.594;2023-02-03T12:46:27;101563.44;;;10.34;93.85
20889;BME280;10604;51.976;7.594;2023-02-03T12:51:30;101555.63;;;10.30;92.76
20889;BME280;10604;51.976;7.594;2023-02-03T12:54:02;101571.38;;;10.33;92.42
20889;BME280;10604;51.976;7.594;2023-02-03T12:56:35;101559.94;;;10.34;92.23
20889;BME280;10604;51.976;7.594;2023-02-03T12:59:08;101568.69;;;10.37;92.19
20889;BME280;10604;51.976;7.594;2023-02-03T13:02:13;101572.97;;;10.43;91.63
20889;BME280;10604;51.976;7.594;2023-02-03T13:04:48;101568.81;;;10.28;91.79
20889;BME280;10604;51.976;7.594;2023-02-03T13:07:20;101579.22;;;10.37;91.44
20889;BME280;10604;51.976;7.594;2023-02-03T13:12:40;101586.09;;;10.47;89.85
20889;BME280;10604;51.976;7.594;2023-02-03T13:15:33;101577.28;;;10.48;89.66
20889;BME280;10604;51.976;7.594;2023-02-03T13:18:21;101584.41;;;10.43;89.43
20889;BME280;10604;51.976;7.594;2023-02-03T13:20:51;101577.38;;;10.42;89.44
20889;BME280;10604;51.976;7.594;2023-02-03T13:23:17;101578.13;;;10.50;88.75
20889;BME280;10604;51.976;7.594;2023-02-03T13:29:02;101570.28;;;10.46;88.30
20889;BME280;10604;51.976;7.594;2023-02-03T13:40:18;101579.16;;;10.40;86.58
20889;BME280;10604;51.976;7.594;2023-02-03T13:42:57;101570.50;;;10.31;85.79
20889;BME280;10604;51.976;7.594;2023-02-03T13:45:40;101579.28;;;10.31;86.15
20889;BME280;10604;51.976;7.594;2023-02-03T13:48:08;101572.34;;;10.27;86.54
20889;BME280;10604;51.976;7.594;2023-02-03T13:50:35;101576.53;;;10.40;85.95
20889;BME280;10604;51.976;7.594;2023-02-03T13:53:24;101582.59;;;10.45;85.60
20889;BME280;10604;51.976;7.594;2023-02-03T13:55:58;101603.75;;;10.44;85.54
20889;BME280;10604;51.976;7.594;2023-02-03T13:58:30;101591.84;;;10.14;84.20
20889;BME280;10604;51.976;7.594;2023-02-03T14:01:03;101590.00;;;10.22;84.02
20889;BME280;10604;51.976;7.594;2023-02-03T14:05:55;101602.50;;;10.06;85.08
20889;BME280;10604;51.976;7.594;2023-02-03T14:16:33;101635.75;;;10.15;82.99
20889;BME280;10604;51.976;7.594;2023-02-03T14:18:59;101627.75;;;10.24;83.03
20889;BME280;10604;51.976;7.594;2023-02-03T14:21:24;101634.03;;;10.14;82.94
20889;BME280;10604;51.976;7.594;2023-02-03T14:23:56;101639.25;;;10.17;82.80
20889;BME280;10604;51.976;7.594;2023-02-03T14:26:29;101635.81;;;10.09;82.74
20889;BME280;10604;51.976;7.594;2023-02-03T14:28:56;101635.78;;;10.12;83.09
20889;BME280;10604;51.976;7.594;2023-02-03T14:31:23;101649.97;;;10.02;82.27
20889;BME280;10604;51.976;7.594;2023-02-03T14:33:56;101651.69;;;10.06;81.53
20889;BME280;10604;51.976;7.594;2023-02-03T14:44:38;101662.44;;;9.91;79.93
20889;BME280;10604;51.976;7.594;2023-02-03T14:47:09;101661.38;;;10.05;80.25
20889;BME280;10604;51.976;7.594;2023-02-03T15:06:34;101693.97;;;9.97;78.28
20889;BME280;10604;51.976;7.594;2023-02-03T15:10:56;101702.59;;;10.11;78.13
20889;BME280;10604;51.976;7.594;2023-02-03T15:13:29;101702.66;;;10.06;78.74